Gaz Unity — HOEJ — position and weather

sailwx.info

Track history (hours):
 
Tides and Currents Weather Stations Pressure Air Temp Water Temp Dewpoint Dewpoint Depression Visibility Wind Speed Wind Dir Waves Ship Positions

Gaz Unity

Last reported at 2016-May-31 17:33 UTC. Time now 2016-May-31 18:04 UTC.
Position N 35°56' E 015°05'.

; draft 10.4 m.

Type: Ship (hazmat cat C). MMSI: 353956000.

Date/timePositionNaut miles runAvg speedWind from/ knotsBaromVisibWave heightAir tempDewpointWater temp
2016-May-31 17:33N 35°56' E 015°05'0 0.2
2016-May-31 16:33N 35°56' E 015°05'0 0.2
2016-May-31 15:33N 35°56' E 015°05'0 0.3
2016-May-31 14:33N 35°56' E 015°05'1 0.6
2016-May-31 13:34N 35°56' E 015°05'4 4.0
2016-May-31 12:33N 35°53' E 015°01'0 0.3
2016-May-31 11:33N 35°53' E 015°01'0 0.3
2016-May-31 10:31N 35°53' E 015°01'0 0.4
2016-May-31 09:34N 35°54' E 015°01'1 0.3
2016-May-31 07:21N 35°54' E 015°00'0 0.6
2016-May-31 06:32N 35°55' E 015°00'7 1.1
2016-May-31 00:25N 35°48' E 014°59'0 0.0
2016-May-30 23:31N 35°48' E 014°59'0 0.0
2016-May-30 22:31N 35°48' E 014°59'0 0.0
2016-May-30 21:31N 35°48' E 014°59'0 0.0
2016-May-30 20:28N 35°48' E 014°59'0 0.0
2016-May-30 19:31N 35°48' E 014°59'0 0.0
2016-May-30 18:31N 35°48' E 014°59'0 0.0
2016-May-30 17:31N 35°48' E 014°59'0 0.0
2016-May-30 16:31N 35°48' E 014°59'0 0.0
2016-May-30 15:31N 35°48' E 014°59'0 0.0
2016-May-30 14:31N 35°48' E 014°59'0 0.0
2016-May-30 13:31N 35°48' E 014°59'0 0.0
2016-May-30 12:28N 35°48' E 014°59'0 0.0
2016-May-30 11:28N 35°48' E 014°59'0 0.0
2016-May-30 10:28N 35°48' E 014°59'0 0.0
2016-May-30 09:31N 35°48' E 014°59'0 0.0
2016-May-30 08:31N 35°48' E 014°59'0 0.0
2016-May-30 07:31N 35°48' E 014°59'0 0.0
2016-May-30 06:31N 35°48' E 014°59'0 0.0
2016-May-30 05:31N 35°48' E 014°59'0 0.0
2016-May-30 04:31N 35°48' E 014°59'0 0.0
2016-May-30 03:31N 35°48' E 014°59'0 0.0
2016-May-30 02:31N 35°48' E 014°59'0 0.0
2016-May-30 01:22N 35°48' E 014°59'0 0.0
2016-May-30 00:28N 35°48' E 014°59'0 0.0
2016-May-29 23:04N 35°48' E 014°59'0 0.0
2016-May-29 22:31N 35°48' E 014°59'0 0.0
2016-May-29 21:31N 35°48' E 014°59'0 0.0
2016-May-29 20:31N 35°48' E 014°59'0 0.0
2016-May-29 19:31N 35°48' E 014°59'0 0.0
2016-May-29 18:31N 35°48' E 014°59'0 0.0
2016-May-29 17:31N 35°48' E 014°59'0 0.0
2016-May-29 16:31N 35°48' E 014°59'0 0.0
2016-May-29 15:31N 35°48' E 014°59'0 0.2
2016-May-29 14:31N 35°48' E 014°58'0 0.0
2016-May-29 13:31N 35°48' E 014°58'0 0.0
2016-May-29 10:25N 35°48' E 014°58'0 0.0
2016-May-29 08:25N 35°48' E 014°58'0 0.0
2016-May-29 07:31N 35°48' E 014°58'0 0.0
2016-May-29 06:31N 35°48' E 014°58'0 0.0
2016-May-29 05:31N 35°48' E 014°58'0 0.0
2016-May-29 04:31N 35°48' E 014°58'0 0.0
2016-May-29 03:28N 35°48' E 014°58'0 0.0
2016-May-29 02:31N 35°48' E 014°59'0 0.0
2016-May-29 01:31N 35°48' E 014°58'0 0.0
2016-May-29 00:22N 35°48' E 014°59'0 0.0
2016-May-28 23:25N 35°48' E 014°59'0 0.1
2016-May-28 22:31N 35°48' E 014°59'0 0.1
2016-May-28 21:31N 35°48' E 014°59'0 0.0
2016-May-28 20:16N 35°48' E 014°59'0 0.0
2016-May-28 19:28N 35°48' E 014°59'0 0.0
2016-May-28 18:31N 35°48' E 014°58'0 0.0
2016-May-28 17:31N 35°48' E 014°58'0 0.0
2016-May-28 16:31N 35°48' E 014°58'0 0.0
2016-May-28 15:19N 35°48' E 014°58'0 0.0
2016-May-28 14:31N 35°48' E 014°58'0 0.0
2016-May-28 13:19N 35°48' E 014°58'0 0.0
2016-May-28 12:28N 35°48' E 014°58'0 0.0
2016-May-28 11:28N 35°48' E 014°58'0 0.0
2016-May-28 10:28N 35°48' E 014°58'0 0.0
2016-May-28 09:31N 35°48' E 014°58'0 0.1
2016-May-28 08:31N 35°48' E 014°58'0 0.0
2016-May-28 06:16N 35°48' E 014°58'0 0.0
2016-May-28 05:31N 35°48' E 014°58'0 0.0
2016-May-28 04:22N 35°48' E 014°58'0 0.1
2016-May-28 03:31N 35°48' E 014°58'0 0.1
2016-May-28 02:31N 35°48' E 014°58'0 0.1
2016-May-28 01:28N 35°48' E 014°58'0 0.0
2016-May-28 00:31N 35°48' E 014°59'0 0.0
2016-May-27 23:31N 35°48' E 014°59'0 0.0
2016-May-27 22:31N 35°48' E 014°58'0 0.0
2016-May-27 21:31N 35°48' E 014°58'0 0.0
2016-May-27 20:31N 35°48' E 014°58'0 0.0
2016-May-27 19:31N 35°48' E 014°58'0 0.0
2016-May-27 18:31N 35°48' E 014°58'0 0.0
2016-May-27 17:31N 35°48' E 014°58'0 0.0
2016-May-27 16:31N 35°48' E 014°58'0 0.0
2016-May-27 15:31N 35°48' E 014°58'0 0.0
2016-May-27 14:28N 35°48' E 014°58'0 0.1
2016-May-27 13:31N 35°48' E 014°58'0 0.0
2016-May-27 12:31N 35°48' E 014°58'0 0.0
2016-May-27 10:10N 35°48' E 014°58'0 0.0
2016-May-27 09:31N 35°48' E 014°58'0 0.0
2016-May-27 08:31N 35°48' E 014°58'0 0.0
2016-May-27 07:31N 35°48' E 014°58'0 0.0
2016-May-27 06:31N 35°48' E 014°59'0 0.0
2016-May-27 05:31N 35°48' E 014°59'0 0.0
2016-May-27 04:31N 35°48' E 014°59'0 0.0
2016-May-27 03:28N 35°48' E 014°59'0 0.0
2016-May-27 02:31N 35°48' E 014°58'0 0.0
2016-May-27 01:28N 35°48' E 014°58'0 0.0
2016-May-27 00:31N 35°48' E 014°58'0 0.0
2016-May-26 23:31N 35°48' E 014°58'0 0.1
2016-May-26 22:31N 35°48' E 014°58'0 0.1
2016-May-26 21:31N 35°48' E 014°58'0 0.0
2016-May-26 20:28N 35°48' E 014°58'0 0.0
2016-May-26 19:31N 35°48' E 014°58'0 0.0
2016-May-26 18:31N 35°48' E 014°58'0 0.0
2016-May-26 17:28N 35°48' E 014°58'0 0.0
2016-May-26 16:31N 35°48' E 014°58'0 0.0
2016-May-26 15:31N 35°48' E 014°58'0 0.0
2016-May-26 14:31N 35°48' E 014°58'0 0.0
2016-May-26 13:31N 35°48' E 014°58'0 0.0
2016-May-26 12:31N 35°48' E 014°58'0 0.0
2016-May-26 11:31N 35°48' E 014°58'0 0.0
2016-May-26 10:31N 35°48' E 014°58'0 0.0
2016-May-26 09:31N 35°48' E 014°58'0 0.0
2016-May-26 08:31N 35°48' E 014°58'0 0.0
2016-May-26 07:31N 35°48' E 014°58'0 0.0
2016-May-26 06:31N 35°48' E 014°58'0 0.0
2016-May-26 05:31N 35°48' E 014°58'0 0.0
2016-May-26 04:31N 35°48' E 014°58'0 0.0
2016-May-26 03:31N 35°48' E 014°58'0 0.0
2016-May-26 02:28N 35°48' E 014°58'0 0.0
2016-May-26 01:28N 35°48' E 014°58'0 0.0
2016-May-26 00:31N 35°48' E 014°58'0 0.0
2016-May-25 23:31N 35°48' E 014°58'0 0.0
2016-May-25 22:31N 35°48' E 014°58'0 0.0
2016-May-25 21:31N 35°48' E 014°58'0 0.0
2016-May-25 20:31N 35°48' E 014°58'0 0.0
2016-May-25 19:28N 35°48' E 014°58'0 0.0
2016-May-25 18:31N 35°48' E 014°58'0 0.0
2016-May-25 17:31N 35°48' E 014°58'0 0.0
2016-May-25 16:31N 35°48' E 014°58'0 0.0
2016-May-25 14:25N 35°48' E 014°58'0 0.0
2016-May-25 13:31N 35°48' E 014°58'0 0.0
2016-May-25 12:31N 35°48' E 014°58'0 0.0
2016-May-25 11:31N 35°48' E 014°58'0 0.0
2016-May-25 10:31N 35°48' E 014°58'0 0.0
2016-May-25 09:31N 35°48' E 014°58'0 0.0
2016-May-25 06:28N 35°48' E 014°58'1 0.6
2016-May-25 05:33N 35°47' E 014°59'5 3.6
2016-May-25 04:12N 35°43' E 014°59'3 0.7
2016-May-25 00:28N 35°45' E 014°60'7 1.3
2016-May-24 18:33N 35°53' E 015°00'1 1.2
2016-May-24 17:33N 35°54' E 014°60'1 1.3
2016-May-24 16:33N 35°55' E 014°59'1 1.2
2016-May-24 15:33N 35°56' E 014°58'1 0.8
2016-May-24 14:33N 35°56' E 014°57'0 0.3
2016-May-24 13:32N 35°56' E 014°57'0 0.0
2016-May-24 12:32N 35°56' E 014°57'0 0.0
2016-May-24 11:32N 35°56' E 014°57'0 0.0
2016-May-24 10:32N 35°56' E 014°57'0 0.0
2016-May-24 09:32N 35°56' E 014°57'0 0.0
2016-May-24 08:32N 35°56' E 014°57'0 0.0
2016-May-24 07:32N 35°56' E 014°57'0 0.0
2016-May-24 06:32N 35°56' E 014°57'0 0.0
2016-May-24 05:32N 35°56' E 014°57'0 0.0
2016-May-24 04:32N 35°56' E 014°57'0 0.0
2016-May-24 03:32N 35°56' E 014°57'0 0.0
2016-May-24 02:32N 35°56' E 014°57'0 0.0
2016-May-24 01:32N 35°56' E 014°57'0 0.1
2016-May-24 00:32N 35°56' E 014°57'0 0.0
2016-May-23 21:29N 35°56' E 014°57'0 0.0
2016-May-23 20:29N 35°56' E 014°57'0 0.0
2016-May-23 19:29N 35°56' E 014°57'0 0.0
2016-May-23 18:32N 35°56' E 014°57'0 0.0
2016-May-23 17:17N 35°56' E 014°57'0 0.0
2016-May-23 16:29N 35°56' E 014°57'0 0.0
2016-May-23 13:11N 35°56' E 014°57'0 0.0
2016-May-23 12:11N 35°56' E 014°57'0 0.0
2016-May-23 11:32N 35°56' E 014°57'0 0.0
2016-May-23 10:32N 35°56' E 014°57'0 0.0
2016-May-23 09:26N 35°56' E 014°57'0 0.0
2016-May-23 08:32N 35°56' E 014°57'0 0.0
2016-May-23 06:26N 35°56' E 014°57'0 0.0
2016-May-23 05:32N 35°56' E 014°57'0 0.0
2016-May-23 04:32N 35°56' E 014°57'0 0.0
2016-May-23 03:32N 35°56' E 014°57'0 0.0
2016-May-23 02:32N 35°56' E 014°57'0 0.0
2016-May-23 01:32N 35°56' E 014°57'0 0.0
2016-May-23 00:32N 35°56' E 014°57'0 0.0
2016-May-22 23:32N 35°56' E 014°57'0 0.0
2016-May-22 22:32N 35°56' E 014°57'0 0.0
2016-May-22 21:32N 35°56' E 014°57'0 0.0
2016-May-22 20:32N 35°56' E 014°57'0 0.0
2016-May-22 19:32N 35°56' E 014°57'0 0.0
2016-May-22 18:32N 35°56' E 014°57'0 0.0
2016-May-22 17:32N 35°56' E 014°57'0 0.0
2016-May-22 16:32N 35°56' E 014°57'0 0.0
2016-May-22 15:32N 35°56' E 014°57'0 0.0
2016-May-22 14:32N 35°56' E 014°57'0 0.0
2016-May-22 13:29N 35°56' E 014°57'0 0.5
2016-May-22 12:33N 35°56' E 014°57'1 0.8
2016-May-22 11:33N 35°57' E 014°57'1 0.8
2016-May-22 10:33N 35°58' E 014°57'1 0.6
2016-May-22 09:33N 35°58' E 014°57'3 2.6
2016-May-22 08:33N 35°56' E 014°56'4 4.2
2016-May-22 07:33N 35°52' E 014°56'1 0.9
2016-May-22 06:33N 35°51' E 014°57'1 0.6
2016-May-22 05:33N 35°51' E 014°57'0 0.1
2016-May-22 04:31N 35°51' E 014°57'0 0.0
2016-May-22 03:31N 35°51' E 014°57'0 0.0
2016-May-22 02:31N 35°51' E 014°57'0 0.0
2016-May-22 01:22N 35°51' E 014°57'0 0.0
2016-May-22 00:28N 35°51' E 014°57'0 0.0
2016-May-21 23:28N 35°51' E 014°57'0 0.0
2016-May-21 22:31N 35°51' E 014°57'0 0.0
2016-May-21 21:31N 35°51' E 014°57'0 0.0
2016-May-21 20:31N 35°51' E 014°57'0 0.0
2016-May-21 19:25N 35°51' E 014°57'0 0.0
2016-May-21 18:31N 35°51' E 014°57'  
Track history (hours):
 
Tides and Currents Weather Stations Pressure Air Temp Water Temp Dewpoint Dewpoint Depression Visibility Wind Speed Wind Dir Waves Ship Positions

Gaz Unity

Last reported at 2016-May-31 17:33 UTC. Time now 2016-May-31 18:04 UTC.
Position N 35°56' E 015°05'.

; draft 10.4 m.

Type: Ship (hazmat cat C). MMSI: 353956000.

Date/timePositionNaut miles runAvg speedWind from/ knotsBaromVisibWave heightAir tempDewpointWater temp
2016-May-31 17:33N 35°56' E 015°05'0 0.2
2016-May-31 16:33N 35°56' E 015°05'0 0.2
2016-May-31 15:33N 35°56' E 015°05'0 0.3
2016-May-31 14:33N 35°56' E 015°05'1 0.6
2016-May-31 13:34N 35°56' E 015°05'4 4.0
2016-May-31 12:33N 35°53' E 015°01'0 0.3
2016-May-31 11:33N 35°53' E 015°01'0 0.3
2016-May-31 10:31N 35°53' E 015°01'0 0.4
2016-May-31 09:34N 35°54' E 015°01'1 0.3
2016-May-31 07:21N 35°54' E 015°00'0 0.6
2016-May-31 06:32N 35°55' E 015°00'7 1.1
2016-May-31 00:25N 35°48' E 014°59'0 0.0
2016-May-30 23:31N 35°48' E 014°59'0 0.0
2016-May-30 22:31N 35°48' E 014°59'0 0.0
2016-May-30 21:31N 35°48' E 014°59'0 0.0
2016-May-30 20:28N 35°48' E 014°59'0 0.0
2016-May-30 19:31N 35°48' E 014°59'0 0.0
2016-May-30 18:31N 35°48' E 014°59'0 0.0
2016-May-30 17:31N 35°48' E 014°59'0 0.0
2016-May-30 16:31N 35°48' E 014°59'0 0.0
2016-May-30 15:31N 35°48' E 014°59'0 0.0
2016-May-30 14:31N 35°48' E 014°59'0 0.0
2016-May-30 13:31N 35°48' E 014°59'0 0.0
2016-May-30 12:28N 35°48' E 014°59'0 0.0
2016-May-30 11:28N 35°48' E 014°59'0 0.0
2016-May-30 10:28N 35°48' E 014°59'0 0.0
2016-May-30 09:31N 35°48' E 014°59'0 0.0
2016-May-30 08:31N 35°48' E 014°59'0 0.0
2016-May-30 07:31N 35°48' E 014°59'0 0.0
2016-May-30 06:31N 35°48' E 014°59'0 0.0
2016-May-30 05:31N 35°48' E 014°59'0 0.0
2016-May-30 04:31N 35°48' E 014°59'0 0.0
2016-May-30 03:31N 35°48' E 014°59'0 0.0
2016-May-30 02:31N 35°48' E 014°59'0 0.0
2016-May-30 01:22N 35°48' E 014°59'0 0.0
2016-May-30 00:28N 35°48' E 014°59'0 0.0
2016-May-29 23:04N 35°48' E 014°59'0 0.0
2016-May-29 22:31N 35°48' E 014°59'0 0.0
2016-May-29 21:31N 35°48' E 014°59'0 0.0
2016-May-29 20:31N 35°48' E 014°59'0 0.0
2016-May-29 19:31N 35°48' E 014°59'0 0.0
2016-May-29 18:31N 35°48' E 014°59'0 0.0
2016-May-29 17:31N 35°48' E 014°59'0 0.0
2016-May-29 16:31N 35°48' E 014°59'0 0.0
2016-May-29 15:31N 35°48' E 014°59'0 0.2
2016-May-29 14:31N 35°48' E 014°58'0 0.0
2016-May-29 13:31N 35°48' E 014°58'0 0.0
2016-May-29 10:25N 35°48' E 014°58'0 0.0
2016-May-29 08:25N 35°48' E 014°58'0 0.0
2016-May-29 07:31N 35°48' E 014°58'0 0.0
2016-May-29 06:31N 35°48' E 014°58'0 0.0
2016-May-29 05:31N 35°48' E 014°58'0 0.0
2016-May-29 04:31N 35°48' E 014°58'0 0.0
2016-May-29 03:28N 35°48' E 014°58'0 0.0
2016-May-29 02:31N 35°48' E 014°59'0 0.0
2016-May-29 01:31N 35°48' E 014°58'0 0.0
2016-May-29 00:22N 35°48' E 014°59'0 0.0
2016-May-28 23:25N 35°48' E 014°59'0 0.1
2016-May-28 22:31N 35°48' E 014°59'0 0.1
2016-May-28 21:31N 35°48' E 014°59'0 0.0
2016-May-28 20:16N 35°48' E 014°59'0 0.0
2016-May-28 19:28N 35°48' E 014°59'0 0.0
2016-May-28 18:31N 35°48' E 014°58'0 0.0
2016-May-28 17:31N 35°48' E 014°58'0 0.0
2016-May-28 16:31N 35°48' E 014°58'0 0.0
2016-May-28 15:19N 35°48' E 014°58'0 0.0
2016-May-28 14:31N 35°48' E 014°58'0 0.0
2016-May-28 13:19N 35°48' E 014°58'0 0.0
2016-May-28 12:28N 35°48' E 014°58'0 0.0
2016-May-28 11:28N 35°48' E 014°58'0 0.0
2016-May-28 10:28N 35°48' E 014°58'0 0.0
2016-May-28 09:31N 35°48' E 014°58'0 0.1
2016-May-28 08:31N 35°48' E 014°58'0 0.0
2016-May-28 06:16N 35°48' E 014°58'0 0.0
2016-May-28 05:31N 35°48' E 014°58'0 0.0
2016-May-28 04:22N 35°48' E 014°58'0 0.1
2016-May-28 03:31N 35°48' E 014°58'0 0.1
2016-May-28 02:31N 35°48' E 014°58'0 0.1
2016-May-28 01:28N 35°48' E 014°58'0 0.0
2016-May-28 00:31N 35°48' E 014°59'0 0.0
2016-May-27 23:31N 35°48' E 014°59'0 0.0
2016-May-27 22:31N 35°48' E 014°58'0 0.0
2016-May-27 21:31N 35°48' E 014°58'0 0.0
2016-May-27 20:31N 35°48' E 014°58'0 0.0
2016-May-27 19:31N 35°48' E 014°58'0 0.0
2016-May-27 18:31N 35°48' E 014°58'0 0.0
2016-May-27 17:31N 35°48' E 014°58'0 0.0
2016-May-27 16:31N 35°48' E 014°58'0 0.0
2016-May-27 15:31N 35°48' E 014°58'0 0.0
2016-May-27 14:28N 35°48' E 014°58'0 0.1
2016-May-27 13:31N 35°48' E 014°58'0 0.0
2016-May-27 12:31N 35°48' E 014°58'0 0.0
2016-May-27 10:10N 35°48' E 014°58'0 0.0
2016-May-27 09:31N 35°48' E 014°58'0 0.0
2016-May-27 08:31N 35°48' E 014°58'0 0.0
2016-May-27 07:31N 35°48' E 014°58'0 0.0
2016-May-27 06:31N 35°48' E 014°59'0 0.0
2016-May-27 05:31N 35°48' E 014°59'0 0.0
2016-May-27 04:31N 35°48' E 014°59'0 0.0
2016-May-27 03:28N 35°48' E 014°59'0 0.0
2016-May-27 02:31N 35°48' E 014°58'0 0.0
2016-May-27 01:28N 35°48' E 014°58'0 0.0
2016-May-27 00:31N 35°48' E 014°58'0 0.0
2016-May-26 23:31N 35°48' E 014°58'0 0.1
2016-May-26 22:31N 35°48' E 014°58'0 0.1
2016-May-26 21:31N 35°48' E 014°58'0 0.0
2016-May-26 20:28N 35°48' E 014°58'0 0.0
2016-May-26 19:31N 35°48' E 014°58'0 0.0
2016-May-26 18:31N 35°48' E 014°58'0 0.0
2016-May-26 17:28N 35°48' E 014°58'0 0.0
2016-May-26 16:31N 35°48' E 014°58'0 0.0
2016-May-26 15:31N 35°48' E 014°58'0 0.0
2016-May-26 14:31N 35°48' E 014°58'0 0.0
2016-May-26 13:31N 35°48' E 014°58'0 0.0
2016-May-26 12:31N 35°48' E 014°58'0 0.0
2016-May-26 11:31N 35°48' E 014°58'0 0.0
2016-May-26 10:31N 35°48' E 014°58'0 0.0
2016-May-26 09:31N 35°48' E 014°58'0 0.0
2016-May-26 08:31N 35°48' E 014°58'0 0.0
2016-May-26 07:31N 35°48' E 014°58'0 0.0
2016-May-26 06:31N 35°48' E 014°58'0 0.0
2016-May-26 05:31N 35°48' E 014°58'0 0.0
2016-May-26 04:31N 35°48' E 014°58'0 0.0
2016-May-26 03:31N 35°48' E 014°58'0 0.0
2016-May-26 02:28N 35°48' E 014°58'0 0.0
2016-May-26 01:28N 35°48' E 014°58'0 0.0
2016-May-26 00:31N 35°48' E 014°58'0 0.0
2016-May-25 23:31N 35°48' E 014°58'0 0.0
2016-May-25 22:31N 35°48' E 014°58'0 0.0
2016-May-25 21:31N 35°48' E 014°58'0 0.0
2016-May-25 20:31N 35°48' E 014°58'0 0.0
2016-May-25 19:28N 35°48' E 014°58'0 0.0
2016-May-25 18:31N 35°48' E 014°58'0 0.0
2016-May-25 17:31N 35°48' E 014°58'0 0.0
2016-May-25 16:31N 35°48' E 014°58'0 0.0
2016-May-25 14:25N 35°48' E 014°58'0 0.0
2016-May-25 13:31N 35°48' E 014°58'0 0.0
2016-May-25 12:31N 35°48' E 014°58'0 0.0
2016-May-25 11:31N 35°48' E 014°58'0 0.0
2016-May-25 10:31N 35°48' E 014°58'0 0.0
2016-May-25 09:31N 35°48' E 014°58'0 0.0
2016-May-25 06:28N 35°48' E 014°58'1 0.6
2016-May-25 05:33N 35°47' E 014°59'5 3.6
2016-May-25 04:12N 35°43' E 014°59'3 0.7
2016-May-25 00:28N 35°45' E 014°60'7 1.3
2016-May-24 18:33N 35°53' E 015°00'1 1.2
2016-May-24 17:33N 35°54' E 014°60'1 1.3
2016-May-24 16:33N 35°55' E 014°59'1 1.2
2016-May-24 15:33N 35°56' E 014°58'1 0.8
2016-May-24 14:33N 35°56' E 014°57'0 0.3
2016-May-24 13:32N 35°56' E 014°57'0 0.0
2016-May-24 12:32N 35°56' E 014°57'0 0.0
2016-May-24 11:32N 35°56' E 014°57'0 0.0
2016-May-24 10:32N 35°56' E 014°57'0 0.0
2016-May-24 09:32N 35°56' E 014°57'0 0.0
2016-May-24 08:32N 35°56' E 014°57'0 0.0
2016-May-24 07:32N 35°56' E 014°57'0 0.0
2016-May-24 06:32N 35°56' E 014°57'0 0.0
2016-May-24 05:32N 35°56' E 014°57'0 0.0
2016-May-24 04:32N 35°56' E 014°57'0 0.0
2016-May-24 03:32N 35°56' E 014°57'0 0.0
2016-May-24 02:32N 35°56' E 014°57'0 0.0
2016-May-24 01:32N 35°56' E 014°57'0 0.1
2016-May-24 00:32N 35°56' E 014°57'0 0.0
2016-May-23 21:29N 35°56' E 014°57'0 0.0
2016-May-23 20:29N 35°56' E 014°57'0 0.0
2016-May-23 19:29N 35°56' E 014°57'0 0.0
2016-May-23 18:32N 35°56' E 014°57'0 0.0
2016-May-23 17:17N 35°56' E 014°57'0 0.0
2016-May-23 16:29N 35°56' E 014°57'0 0.0
2016-May-23 13:11N 35°56' E 014°57'0 0.0
2016-May-23 12:11N 35°56' E 014°57'0 0.0
2016-May-23 11:32N 35°56' E 014°57'0 0.0
2016-May-23 10:32N 35°56' E 014°57'0 0.0
2016-May-23 09:26N 35°56' E 014°57'0 0.0
2016-May-23 08:32N 35°56' E 014°57'0 0.0
2016-May-23 06:26N 35°56' E 014°57'0 0.0
2016-May-23 05:32N 35°56' E 014°57'0 0.0
2016-May-23 04:32N 35°56' E 014°57'0 0.0
2016-May-23 03:32N 35°56' E 014°57'0 0.0
2016-May-23 02:32N 35°56' E 014°57'0 0.0
2016-May-23 01:32N 35°56' E 014°57'0 0.0
2016-May-23 00:32N 35°56' E 014°57'0 0.0
2016-May-22 23:32N 35°56' E 014°57'0 0.0
2016-May-22 22:32N 35°56' E 014°57'0 0.0
2016-May-22 21:32N 35°56' E 014°57'0 0.0
2016-May-22 20:32N 35°56' E 014°57'0 0.0
2016-May-22 19:32N 35°56' E 014°57'0 0.0
2016-May-22 18:32N 35°56' E 014°57'0 0.0
2016-May-22 17:32N 35°56' E 014°57'0 0.0
2016-May-22 16:32N 35°56' E 014°57'0 0.0
2016-May-22 15:32N 35°56' E 014°57'0 0.0
2016-May-22 14:32N 35°56' E 014°57'0 0.0
2016-May-22 13:29N 35°56' E 014°57'0 0.5
2016-May-22 12:33N 35°56' E 014°57'1 0.8
2016-May-22 11:33N 35°57' E 014°57'1 0.8
2016-May-22 10:33N 35°58' E 014°57'1 0.6
2016-May-22 09:33N 35°58' E 014°57'3 2.6
2016-May-22 08:33N 35°56' E 014°56'4 4.2
2016-May-22 07:33N 35°52' E 014°56'1 0.9
2016-May-22 06:33N 35°51' E 014°57'1 0.6
2016-May-22 05:33N 35°51' E 014°57'0 0.1
2016-May-22 04:31N 35°51' E 014°57'0 0.0
2016-May-22 03:31N 35°51' E 014°57'0 0.0
2016-May-22 02:31N 35°51' E 014°57'0 0.0
2016-May-22 01:22N 35°51' E 014°57'0 0.0
2016-May-22 00:28N 35°51' E 014°57'0 0.0
2016-May-21 23:28N 35°51' E 014°57'0 0.0
2016-May-21 22:31N 35°51' E 014°57'0 0.0
2016-May-21 21:31N 35°51' E 014°57'0 0.0
2016-May-21 20:31N 35°51' E 014°57'0 0.0
2016-May-21 19:25N 35°51' E 014°57'0 0.0
2016-May-21 18:31N 35°51' E 014°57'  

Dump ship's entire track history